Bookmark and Share
Track history (hours):
 

Modern Express

Last reported at 2014-Apr-23 12:33 UTC. Time now 2014-Apr-23 12:40 UTC.
Position N 51°22' E 004°13'.

Length 164 m; beam 28 m.

Type: Cargo ship. MMSI: 356187000.

NotesDate/timePositionNaut miles runAvg speedWind from/ knotsBaromVisibWave heightAir tempDewpointWater temp
2014-Apr-23 12:33N 51°22' E 004°13'7 7.4
2014-Apr-23 11:34N 51°24' E 004°02'7 7.0
2014-Apr-23 10:33N 51°21' E 003°52'10 9.7
2014-Apr-23 09:33N 51°26' E 003°39'9 8.6
2014-Apr-23 08:33N 51°25' E 003°26'1312.8
2014-Apr-23 07:34N 51°24' E 003°05'1514.5
2014-Apr-23 06:33N 51°22' E 002°42'4 4.2
2014-Apr-23 05:33N 51°23' E 002°35'1 0.9
2014-Apr-23 04:32N 51°24' E 002°35'0 0.0
2014-Apr-23 03:29N 51°24' E 002°35'0 0.0
2014-Apr-23 02:32N 51°24' E 002°35'0 0.0
2014-Apr-23 01:32N 51°24' E 002°35'0 0.0
2014-Apr-23 00:32N 51°24' E 002°35'0 0.0
2014-Apr-22 23:20N 51°24' E 002°35'0 0.0
2014-Apr-22 22:33N 51°24' E 002°35'0 0.2
2014-Apr-22 21:33N 51°24' E 002°35'6 5.8
2014-Apr-22 20:32N 51°21' E 002°27'1111.0
2014-Apr-22 19:33N 51°15' E 002°12'1212.1
2014-Apr-22 18:34N 51°10' E 001°55'1615.9
2014-Apr-22 17:34N 51°00' E 001°35'1716.7
2014-Apr-22 16:33N 50°45' E 001°23'1717.0
2014-Apr-22 15:33N 50°33' E 001°05'1717.4
2014-Apr-22 14:33N 50°26' E 000°40'2718.6
2014-Apr-22 13:07N 50°17' W 000°00'4316.8
2014-Apr-22 10:33N 49°35' W 000°06'1111.4
2014-Apr-22 09:33N 49°28' E 000°08'2 1.5
2014-Apr-22 08:33N 49°29' E 000°11'0 0.4
2014-Apr-22 07:31N 49°29' E 000°11'0 0.0
2014-Apr-22 06:31N 49°29' E 000°11'0 0.0
2014-Apr-22 05:31N 49°29' E 000°11'0 0.0
2014-Apr-22 04:31N 49°29' E 000°11'0 0.0
2014-Apr-22 03:25N 49°29' E 000°11'0 0.0
2014-Apr-22 02:31N 49°29' E 000°11'0 0.0
2014-Apr-22 01:31N 49°29' E 000°11'0 0.0
2014-Apr-22 00:31N 49°29' E 000°11'0 0.0
2014-Apr-21 23:31N 49°29' E 000°11'0 0.0
2014-Apr-21 22:31N 49°29' E 000°11'0 0.0
2014-Apr-21 21:31N 49°29' E 000°11'0 0.0
2014-Apr-21 20:31N 49°29' E 000°11'0 0.0
2014-Apr-21 19:31N 49°29' E 000°11'0 0.0
2014-Apr-21 18:31N 49°29' E 000°11'0 0.0
2014-Apr-21 17:31N 49°29' E 000°11'0 0.0
2014-Apr-21 16:31N 49°29' E 000°11'0 0.0
2014-Apr-21 15:33N 49°29' E 000°11'0 0.0
2014-Apr-21 14:31N 49°29' E 000°11'0 0.0
2014-Apr-21 13:31N 49°29' E 000°11'0 0.0
2014-Apr-21 12:31N 49°29' E 000°11'0 0.0
2014-Apr-21 11:31N 49°29' E 000°11'0 0.0
2014-Apr-21 10:31N 49°29' E 000°11'0 0.0
2014-Apr-21 09:31N 49°29' E 000°11'0 0.0
2014-Apr-21 08:31N 49°29' E 000°11'0 0.0
2014-Apr-21 07:31N 49°29' E 000°11'0 0.0
2014-Apr-21 06:31N 49°29' E 000°11'0 0.0
2014-Apr-21 05:31N 49°29' E 000°11'0 0.0
2014-Apr-21 04:31N 49°29' E 000°11'0 0.0
2014-Apr-21 03:31N 49°29' E 000°11'0 0.0
2014-Apr-21 02:31N 49°29' E 000°11'0 0.0
2014-Apr-21 01:31N 49°29' E 000°11'0 0.0
2014-Apr-21 00:31N 49°29' E 000°11'0 0.0
2014-Apr-20 23:28N 49°29' E 000°11'0 0.0
2014-Apr-20 22:31N 49°29' E 000°11'0 0.0
2014-Apr-20 21:31N 49°29' E 000°11'0 0.0
2014-Apr-20 20:31N 49°29' E 000°11'0 0.0
2014-Apr-20 19:28N 49°29' E 000°11'0 0.0
2014-Apr-20 18:31N 49°29' E 000°11'0 0.0
2014-Apr-20 17:34N 49°29' E 000°11'1 0.9
2014-Apr-20 16:33N 49°28' E 000°10'1010.3
2014-Apr-20 15:34N 49°31' W 000°05'3 3.0
2014-Apr-20 14:31N 49°33' W 000°09'0 0.0
2014-Apr-20 13:31N 49°33' W 000°09'0 0.0
2014-Apr-20 12:22N 49°33' W 000°09'0 0.0
2014-Apr-20 11:31N 49°33' W 000°09'0 0.1
2014-Apr-20 10:28N 49°33' W 000°09'0 0.1
2014-Apr-20 09:31N 49°33' W 000°10'0 0.0
2014-Apr-20 08:33N 49°33' W 000°10'0 0.0
2014-Apr-20 07:33N 49°33' W 000°10'3 3.2
2014-Apr-20 06:33N 49°33' W 000°14'9 8.9
2014-Apr-20 05:33N 49°37' W 000°27'3113.3
2014-Apr-20 03:15N 49°54' W 001°07'1014.5
2014-Apr-20 02:33N 49°59' W 001°20'214 9.1
2014-Apr-19 03:09N 46°30' W 002°25'1016.6
2014-Apr-19 02:33N 46°24' W 002°13'1716.6
2014-Apr-19 01:33N 46°13' W 001°55'1615.6
2014-Apr-19 00:33N 46°08' W 001°34'1313.0
2014-Apr-18 23:31N 46°09' W 001°15'1 0.0
2014-Apr-18 07:30N 46°09' W 001°13'2 1.5
2014-Apr-18 06:29N 46°08' W 001°15'4 1.8
2014-Apr-18 04:30N 46°05' W 001°14'0 0.0
2014-Apr-18 03:27N 46°05' W 001°14'0 0.0
2014-Apr-18 02:33N 46°05' W 001°14'0 0.0
2014-Apr-18 01:33N 46°05' W 001°14'0 0.0
2014-Apr-17 23:33N 46°05' W 001°14'0 0.0
2014-Apr-17 18:30N 46°05' W 001°14'0 0.0
2014-Apr-17 08:33N 46°05' W 001°14'0 0.0
2014-Apr-17 06:09N 46°05' W 001°14'0 0.0
2014-Apr-17 05:12N 46°05' W 001°14'0 0.0
2014-Apr-17 04:18N 46°05' W 001°14'1 0.1
2014-Apr-17 00:29N 46°05' W 001°15'9 9.2
2014-Apr-16 23:33N 46°06' W 001°27'1515.5
2014-Apr-16 22:33N 46°06' W 001°49'1715.9
2014-Apr-16 21:30N 45°59' W 002°11'1515.7
2014-Apr-16 20:33N 45°52' W 002°30'59413.2
2014-Apr-14 23:32N 37°41' W 009°57'1515.5
2014-Apr-14 22:33N 37°26' W 009°59'  

Dump ship's entire track history

sailing weather and tide predictions

Modern Express — H9DG — position and weather